createdAt,value
2023-01-20T00:00:05.402Z,82.73
2023-01-20T00:02:42.643Z,83.37
2023-01-20T00:05:13.856Z,78.59
2023-01-20T00:07:45.008Z,82.30
2023-01-20T00:10:15.632Z,80.58
2023-01-20T00:12:46.744Z,83.49
2023-01-20T00:15:18.165Z,81.56
2023-01-20T00:17:48.548Z,77.46
2023-01-20T00:20:20.108Z,80.28
2023-01-20T00:22:51.192Z,89.88
2023-01-20T00:25:21.817Z,81.01
2023-01-20T00:27:56.631Z,83.17
2023-01-20T00:30:27.786Z,80.89
2023-01-20T00:32:59.425Z,85.80
2023-01-20T00:35:30.748Z,81.45
2023-01-20T00:38:01.717Z,85.62
2023-01-20T00:40:32.760Z,85.22
2023-01-20T00:43:03.385Z,85.61
2023-01-20T00:45:34.415Z,81.12
2023-01-20T00:48:05.154Z,86.17
2023-01-20T00:50:36.499Z,86.96
2023-01-20T00:53:07.562Z,89.11
2023-01-20T00:55:38.197Z,86.35
2023-01-20T00:58:09.485Z,82.09
2023-01-20T01:00:40.636Z,83.72
2023-01-20T01:03:14.497Z,80.93
2023-01-20T01:05:46.373Z,81.08
2023-01-20T01:08:17.354Z,85.67
2023-01-20T01:10:48.335Z,84.85
2023-01-20T01:13:19.407Z,86.77
2023-01-20T01:15:51.821Z,86.01
2023-01-20T01:18:23.242Z,87.95
2023-01-20T01:20:55.907Z,87.32
2023-01-20T01:23:27.225Z,82.23
2023-01-20T01:25:58.785Z,84.11
2023-01-20T01:28:29.895Z,83.46
2023-01-20T01:31:08.873Z,84.08
2023-01-20T01:33:40.589Z,80.87
2023-01-20T01:36:15.389Z,83.77
2023-01-20T01:38:57.949Z,81.39
2023-01-20T01:41:30.082Z,83.79
2023-01-20T01:44:08.687Z,84.04
2023-01-20T01:46:40.212Z,82.93
2023-01-20T01:49:18.338Z,84.37
2023-01-20T01:52:06.520Z,87.48
2023-01-20T01:54:40.687Z,84.41
2023-01-20T01:57:11.941Z,87.19
2023-01-20T01:59:42.903Z,88.04
2023-01-20T02:02:13.792Z,86.64
2023-01-20T02:04:46.943Z,85.42
2023-01-20T02:07:21.683Z,86.36
2023-01-20T02:09:52.808Z,88.04
2023-01-20T02:12:25.052Z,90.13
2023-01-20T02:14:58.493Z,89.02
2023-01-20T02:17:35.455Z,90.08
2023-01-20T02:20:52.139Z,89.95
2023-01-20T02:23:35.321Z,83.56
2023-01-20T02:26:21.592Z,80.71
2023-01-20T02:29:10.811Z,71.28
2023-01-20T02:32:11.927Z,70.37
2023-01-20T02:34:55.582Z,67.54
2023-01-20T02:37:31.699Z,80.78
2023-01-20T02:40:08.939Z,79.71
2023-01-20T02:42:44.031Z,76.14
2023-01-20T02:45:36.332Z,78.34
2023-01-20T02:48:37.402Z,72.28
2023-01-20T02:51:22.950Z,72.75
2023-01-20T02:54:00.387Z,73.63
2023-01-20T02:56:32.388Z,75.24
2023-01-20T02:59:13.887Z,69.92
2023-01-20T03:01:54.526Z,73.32
2023-01-20T03:04:30.012Z,73.58
2023-01-20T03:07:02.626Z,68.81
2023-01-20T03:09:37.901Z,71.35
2023-01-20T03:12:23.847Z,77.63
2023-01-20T03:14:55.178Z,75.99
2023-01-20T03:17:26.626Z,77.98
2023-01-20T03:19:57.221Z,78.41
2023-01-20T03:22:28.384Z,79.43
2023-01-20T03:25:01.016Z,83.88
2023-01-20T03:27:33.122Z,78.91
2023-01-20T03:30:04.305Z,77.92
2023-01-20T03:32:35.186Z,80.59
2023-01-20T03:35:05.981Z,75.33
2023-01-20T03:37:36.876Z,74.38
2023-01-20T03:40:08.753Z,74.60
2023-01-20T03:43:08.902Z,76.17
2023-01-20T03:45:40.081Z,81.25
2023-01-20T03:48:31.278Z,75.38
2023-01-20T03:51:09.261Z,79.71
2023-01-20T03:54:02.355Z,84.51
2023-01-20T03:56:42.136Z,77.94
2023-01-20T03:59:14.533Z,78.56
2023-01-20T04:01:47.205Z,78.94
2023-01-20T04:04:20.932Z,82.91
2023-01-20T04:06:52.846Z,86.10
2023-01-20T04:09:30.602Z,88.52
2023-01-20T04:12:02.062Z,89.79
2023-01-20T04:14:33.372Z,84.40
2023-01-20T04:17:05.658Z,86.32
2023-01-20T04:19:36.770Z,88.48
2023-01-20T04:22:16.815Z,92.56
2023-01-20T04:25:10.243Z,96.63
2023-01-20T04:27:42.703Z,95.58
2023-01-20T04:30:15.526Z,97.01
2023-01-20T04:32:46.391Z,97.63
2023-01-20T04:35:20.900Z,97.00
2023-01-20T04:37:52.056Z,96.59
2023-01-20T04:40:23.318Z,96.74
2023-01-20T04:42:54.410Z,95.82
2023-01-20T04:45:25.445Z,93.11
2023-01-20T04:47:56.290Z,89.81
2023-01-20T04:50:27.447Z,90.92
2023-01-20T04:53:00.637Z,90.32
2023-01-20T04:55:31.754Z,93.63
2023-01-20T04:58:02.657Z,96.29
2023-01-20T05:00:33.794Z,96.91
2023-01-20T05:03:05.202Z,95.98
2023-01-20T05:05:36.254Z,93.19
2023-01-20T05:08:07.375Z,92.29
2023-01-20T05:10:38.333Z,96.76
2023-01-20T05:13:09.492Z,93.34
2023-01-20T05:15:42.775Z,94.08
2023-01-20T05:18:13.831Z,96.45
2023-01-20T05:20:47.822Z,92.72
2023-01-20T05:23:19.584Z,95.53
2023-01-20T05:25:54.227Z,95.87
2023-01-20T05:28:25.439Z,95.17
2023-01-20T05:30:56.650Z,97.74
2023-01-20T05:33:28.011Z,100.00
2023-01-20T05:35:59.552Z,100.00
2023-01-20T05:38:30.400Z,100.00
2023-01-20T05:41:05.615Z,100.00
2023-01-20T05:43:36.815Z,100.00
2023-01-20T05:46:08.012Z,100.00
2023-01-20T05:48:38.787Z,100.00
2023-01-20T05:51:09.833Z,100.00
2023-01-20T05:53:41.011Z,100.00
2023-01-20T05:56:14.277Z,100.00
2023-01-20T05:58:45.326Z,100.00
2023-01-20T06:01:16.826Z,100.00
2023-01-20T06:03:48.027Z,100.00
2023-01-20T06:06:19.863Z,100.00
2023-01-20T06:08:51.090Z,100.00
2023-01-20T06:11:22.202Z,100.00
2023-01-20T06:13:53.317Z,100.00
2023-01-20T06:16:24.298Z,100.00
2023-01-20T06:18:55.109Z,100.00
2023-01-20T06:21:26.529Z,100.00
2023-01-20T06:23:57.463Z,100.00
2023-01-20T06:26:28.527Z,100.00
2023-01-20T06:29:03.050Z,100.00
2023-01-20T06:31:33.965Z,100.00
2023-01-20T06:34:04.913Z,100.00
2023-01-20T06:36:36.512Z,100.00
2023-01-20T06:39:07.758Z,100.00
2023-01-20T06:41:39.025Z,100.00
2023-01-20T06:44:10.289Z,100.00
2023-01-20T06:46:41.342Z,100.00
2023-01-20T06:49:12.463Z,100.00
2023-01-20T06:51:43.660Z,100.00
2023-01-20T06:54:14.681Z,100.00
2023-01-20T06:56:45.966Z,100.00
2023-01-20T06:59:17.046Z,100.00
2023-01-20T07:01:48.182Z,100.00
2023-01-20T07:04:19.400Z,100.00
2023-01-20T07:06:50.492Z,100.00
2023-01-20T07:09:21.342Z,100.00
2023-01-20T07:11:52.546Z,100.00
2023-01-20T07:14:24.168Z,100.00
2023-01-20T07:16:55.615Z,100.00
2023-01-20T07:19:26.758Z,100.00
2023-01-20T07:21:57.783Z,100.00
2023-01-20T07:24:28.618Z,100.00
2023-01-20T07:26:59.438Z,100.00
2023-01-20T07:29:30.531Z,100.00
2023-01-20T07:32:01.664Z,100.00
2023-01-20T07:34:32.896Z,100.00
2023-01-20T07:37:04.364Z,100.00
2023-01-20T07:39:37.697Z,100.00
2023-01-20T07:42:08.862Z,100.00
2023-01-20T07:44:39.830Z,100.00
2023-01-20T07:47:10.930Z,100.00
2023-01-20T07:49:42.314Z,100.00
2023-01-20T07:52:13.430Z,100.00
2023-01-20T07:54:44.307Z,100.00
2023-01-20T07:57:15.343Z,100.00
2023-01-20T07:59:46.352Z,100.00
2023-01-20T08:02:17.446Z,100.00
2023-01-20T08:04:48.811Z,100.00
2023-01-20T08:07:19.828Z,100.00
2023-01-20T08:09:51.673Z,100.00
2023-01-20T08:12:22.888Z,100.00
2023-01-20T08:14:53.849Z,100.00
2023-01-20T08:17:25.325Z,100.00
2023-01-20T08:19:56.274Z,100.00
2023-01-20T08:22:27.346Z,100.00
2023-01-20T08:24:58.433Z,100.00
2023-01-20T08:27:29.508Z,100.00
2023-01-20T08:30:00.618Z,100.00
2023-01-20T08:32:33.322Z,100.00
2023-01-20T08:35:04.437Z,100.00
2023-01-20T08:37:38.992Z,100.00
2023-01-20T08:40:11.222Z,100.00
2023-01-20T08:42:43.536Z,100.00
2023-01-20T08:45:14.805Z,100.00
2023-01-20T08:47:47.506Z,100.00
2023-01-20T08:50:18.789Z,100.00
2023-01-20T08:52:49.995Z,100.00
2023-01-20T08:55:22.437Z,100.00
2023-01-20T08:57:53.491Z,100.00
2023-01-20T09:00:25.013Z,100.00
2023-01-20T09:02:56.391Z,100.00
2023-01-20T09:05:28.593Z,100.00
2023-01-20T09:07:59.591Z,100.00
2023-01-20T09:10:30.759Z,100.00
2023-01-20T09:13:01.705Z,100.00
2023-01-20T09:15:32.721Z,100.00
2023-01-20T09:18:03.655Z,100.00
2023-01-20T09:20:34.671Z,100.00
2023-01-20T09:23:05.798Z,100.00
2023-01-20T09:25:36.960Z,100.00
2023-01-20T09:28:08.256Z,100.00
2023-01-20T09:30:39.290Z,100.00
2023-01-20T09:33:12.026Z,100.00
2023-01-20T09:35:43.062Z,100.00
2023-01-20T09:38:34.805Z,100.00
2023-01-20T09:41:34.695Z,100.00
2023-01-20T09:44:15.293Z,100.00
2023-01-20T09:47:14.772Z,100.00
2023-01-20T09:50:07.063Z,100.00
2023-01-20T09:52:59.444Z,100.00
2023-01-20T09:55:48.940Z,100.00
2023-01-20T09:58:31.921Z,100.00
2023-01-20T10:01:12.451Z,100.00
2023-01-20T10:04:07.665Z,100.00
2023-01-20T10:06:59.691Z,100.00
2023-01-20T10:09:43.999Z,100.00
2023-01-20T10:12:34.415Z,100.00
2023-01-20T10:15:39.401Z,100.00
2023-01-20T10:18:42.816Z,100.00
2023-01-20T10:21:15.902Z,100.00
2023-01-20T10:24:00.036Z,100.00
2023-01-20T10:26:55.698Z,100.00
2023-01-20T10:29:32.050Z,100.00
2023-01-20T10:32:05.272Z,100.00
2023-01-20T10:34:56.921Z,100.00
2023-01-20T10:37:28.467Z,100.00
2023-01-20T10:40:06.665Z,100.00
2023-01-20T10:42:38.175Z,100.00
2023-01-20T10:45:30.950Z,100.00
2023-01-20T10:48:13.843Z,100.00
2023-01-20T10:51:09.407Z,100.00
2023-01-20T10:54:16.786Z,100.00
2023-01-20T10:56:57.056Z,100.00
2023-01-20T10:59:42.735Z,100.00
2023-01-20T11:02:25.226Z,100.00
2023-01-20T11:05:21.037Z,100.00
2023-01-20T11:07:53.001Z,100.00
2023-01-20T11:10:26.951Z,100.00
2023-01-20T11:13:01.043Z,100.00
2023-01-20T11:15:40.447Z,100.00
2023-01-20T11:18:17.971Z,100.00
2023-01-20T11:21:02.017Z,100.00
2023-01-20T11:23:41.889Z,100.00
2023-01-20T11:26:28.410Z,100.00
2023-01-20T11:29:02.375Z,100.00
2023-01-20T11:31:52.179Z,100.00
2023-01-20T11:34:37.032Z,100.00
2023-01-20T11:37:08.371Z,100.00
2023-01-20T11:39:46.099Z,100.00
2023-01-20T11:42:22.050Z,100.00
2023-01-20T11:45:20.306Z,100.00
2023-01-20T11:48:16.452Z,100.00
2023-01-20T11:50:51.763Z,100.00
2023-01-20T11:53:28.043Z,100.00
2023-01-20T11:56:07.202Z,100.00
2023-01-20T11:58:54.022Z,100.00
2023-01-20T12:01:30.710Z,100.00
2023-01-20T12:04:28.926Z,100.00
2023-01-20T12:07:16.450Z,100.00
2023-01-20T12:09:51.290Z,100.00
2023-01-20T12:12:40.400Z,100.00
2023-01-20T12:15:24.764Z,100.00
2023-01-20T12:18:06.634Z,100.00
2023-01-20T12:20:54.969Z,100.00
2023-01-20T12:23:50.177Z,100.00
2023-01-20T12:26:23.255Z,100.00
2023-01-20T12:29:07.213Z,100.00
2023-01-20T12:31:38.311Z,100.00
2023-01-20T12:34:22.844Z,100.00
2023-01-20T12:37:18.513Z,100.00
2023-01-20T12:39:54.957Z,100.00
2023-01-20T12:42:50.842Z,100.00
2023-01-20T12:45:40.119Z,100.00
2023-01-20T12:48:23.341Z,100.00
2023-01-20T12:51:09.773Z,100.00
2023-01-20T12:54:09.056Z,100.00
2023-01-20T12:56:46.095Z,100.00
2023-01-20T12:59:54.858Z,100.00
2023-01-20T13:02:40.271Z,100.00
2023-01-20T13:05:49.604Z,100.00
2023-01-20T13:08:26.554Z,100.00
2023-01-20T13:11:16.746Z,100.00
2023-01-20T13:14:10.867Z,100.00
2023-01-20T13:17:00.278Z,100.00
2023-01-20T13:19:34.760Z,100.00
2023-01-20T13:22:26.484Z,100.00
2023-01-20T13:24:59.710Z,100.00
2023-01-20T13:27:34.827Z,100.00
2023-01-20T13:30:09.692Z,100.00
2023-01-20T13:32:46.672Z,100.00
2023-01-20T13:35:20.463Z,100.00
2023-01-20T13:38:01.121Z,100.00
2023-01-20T13:40:41.123Z,100.00
2023-01-20T13:43:36.819Z,100.00
2023-01-20T13:46:07.944Z,100.00
2023-01-20T13:48:40.148Z,100.00
2023-01-20T13:51:29.174Z,100.00
2023-01-20T13:54:35.546Z,100.00
2023-01-20T13:57:29.490Z,100.00
2023-01-20T14:00:00.606Z,100.00
2023-01-20T14:02:42.022Z,100.00
2023-01-20T14:05:23.877Z,100.00
2023-01-20T14:07:54.215Z,100.00
2023-01-20T14:10:25.208Z,100.00
2023-01-20T14:12:56.091Z,100.00
2023-01-20T14:15:37.319Z,100.00
2023-01-20T14:18:17.149Z,100.00
2023-01-20T14:21:03.793Z,100.00
2023-01-20T14:23:40.099Z,100.00
2023-01-20T14:26:17.314Z,100.00
2023-01-20T14:29:02.086Z,100.00
2023-01-20T14:31:38.902Z,100.00
2023-01-20T14:34:33.725Z,100.00
2023-01-20T14:37:19.482Z,100.00
2023-01-20T14:39:51.922Z,100.00
2023-01-20T14:42:24.938Z,100.00
2023-01-20T14:44:59.390Z,100.00
2023-01-20T14:47:40.546Z,100.00
2023-01-20T14:50:15.989Z,100.00
2023-01-20T14:52:50.347Z,100.00
2023-01-20T14:55:54.815Z,100.00
2023-01-20T14:58:26.285Z,100.00
2023-01-20T15:01:00.262Z,100.00
2023-01-20T15:03:32.413Z,100.00
2023-01-20T15:06:12.707Z,100.00
2023-01-20T15:08:48.478Z,100.00
2023-01-20T15:11:27.160Z,100.00
2023-01-20T15:14:03.848Z,100.00
2023-01-20T15:16:46.189Z,100.00
2023-01-20T15:19:17.900Z,100.00
2023-01-20T15:21:48.164Z,100.00
2023-01-20T15:24:19.809Z,100.00
2023-01-20T15:26:51.094Z,100.00
2023-01-20T15:29:24.589Z,100.00
2023-01-20T15:31:57.289Z,100.00
2023-01-20T15:34:29.690Z,100.00
2023-01-20T15:37:00.837Z,100.00
2023-01-20T15:39:35.917Z,100.00
2023-01-20T15:42:10.948Z,100.00
2023-01-20T15:44:42.077Z,100.00
2023-01-20T15:47:28.617Z,100.00
2023-01-20T15:50:00.284Z,100.00
2023-01-20T15:52:32.799Z,100.00
2023-01-20T15:55:03.780Z,100.00
2023-01-20T15:57:34.918Z,100.00
2023-01-20T16:00:08.262Z,100.00
2023-01-20T16:02:42.517Z,100.00
2023-01-20T16:05:17.149Z,100.00
2023-01-20T16:07:50.930Z,100.00
2023-01-20T16:10:22.383Z,100.00
2023-01-20T16:12:53.741Z,100.00
2023-01-20T16:15:24.959Z,100.00
2023-01-20T16:17:56.077Z,100.00
2023-01-20T16:20:27.699Z,100.00
2023-01-20T16:22:58.852Z,100.00
2023-01-20T16:25:29.865Z,100.00
2023-01-20T16:28:01.146Z,100.00
2023-01-20T16:30:32.455Z,100.00
2023-01-20T16:33:04.980Z,100.00
2023-01-20T16:35:36.826Z,100.00
2023-01-20T16:38:07.736Z,100.00
2023-01-20T16:40:38.793Z,100.00
2023-01-20T16:43:12.637Z,100.00
2023-01-20T16:45:44.019Z,100.00
2023-01-20T16:48:15.745Z,100.00
2023-01-20T16:50:46.834Z,100.00
2023-01-20T16:53:18.788Z,100.00
2023-01-20T16:55:49.483Z,100.00
2023-01-20T16:58:21.030Z,100.00
2023-01-20T17:00:52.218Z,100.00
2023-01-20T17:03:26.997Z,100.00
2023-01-20T17:05:58.847Z,100.00
2023-01-20T17:08:29.912Z,100.00
2023-01-20T17:11:00.922Z,100.00
2023-01-20T17:13:31.774Z,100.00
2023-01-20T17:16:02.778Z,100.00
2023-01-20T17:18:33.981Z,100.00
2023-01-20T17:21:09.033Z,100.00
2023-01-20T17:23:40.207Z,100.00
2023-01-20T17:26:12.259Z,100.00
2023-01-20T17:28:42.676Z,100.00
2023-01-20T17:31:14.109Z,100.00
2023-01-20T17:33:48.833Z,100.00
2023-01-20T17:36:20.236Z,100.00
2023-01-20T17:38:51.384Z,100.00
2023-01-20T17:41:22.743Z,100.00
2023-01-20T17:43:53.544Z,100.00
2023-01-20T17:46:27.480Z,100.00
2023-01-20T17:49:00.123Z,100.00
2023-01-20T17:51:30.959Z,100.00
2023-01-20T17:54:04.081Z,100.00
2023-01-20T17:56:35.414Z,100.00
2023-01-20T17:59:06.358Z,100.00
2023-01-20T18:01:37.311Z,100.00
2023-01-20T18:04:11.740Z,100.00
2023-01-20T18:06:42.630Z,100.00
2023-01-20T18:09:15.577Z,100.00
2023-01-20T18:11:46.679Z,100.00
2023-01-20T18:14:17.696Z,100.00
2023-01-20T18:16:49.019Z,100.00
2023-01-20T18:19:19.783Z,100.00
2023-01-20T18:21:50.879Z,100.00
2023-01-20T18:24:22.030Z,100.00
2023-01-20T18:26:53.396Z,100.00
2023-01-20T18:29:24.390Z,100.00
2023-01-20T18:31:56.025Z,100.00
2023-01-20T18:34:26.651Z,100.00
2023-01-20T18:36:58.026Z,100.00
2023-01-20T18:39:29.789Z,100.00
2023-01-20T18:42:00.659Z,100.00
2023-01-20T18:44:31.955Z,100.00
2023-01-20T18:47:03.315Z,100.00
2023-01-20T18:49:34.452Z,100.00
2023-01-20T18:52:05.614Z,100.00
2023-01-20T18:54:38.667Z,100.00
2023-01-20T18:57:09.924Z,100.00
2023-01-20T18:59:43.303Z,100.00
2023-01-20T19:02:14.942Z,100.00
2023-01-20T19:04:45.560Z,100.00
2023-01-20T19:07:16.641Z,100.00
2023-01-20T19:09:48.974Z,100.00
2023-01-20T19:12:20.105Z,100.00
2023-01-20T19:14:52.673Z,100.00
2023-01-20T19:17:23.877Z,100.00
2023-01-20T19:19:54.983Z,100.00
2023-01-20T19:22:26.089Z,100.00
2023-01-20T19:24:57.151Z,100.00
2023-01-20T19:27:27.998Z,100.00
2023-01-20T19:29:58.918Z,100.00
2023-01-20T19:32:30.870Z,100.00
2023-01-20T19:35:01.956Z,100.00
2023-01-20T19:37:34.042Z,100.00
2023-01-20T19:40:04.915Z,100.00
2023-01-20T19:42:35.801Z,100.00
2023-01-20T19:45:07.519Z,100.00
2023-01-20T19:47:38.516Z,100.00
2023-01-20T19:50:11.114Z,100.00
2023-01-20T19:52:41.357Z,100.00
2023-01-20T19:55:12.509Z,100.00
2023-01-20T19:57:43.561Z,100.00
2023-01-20T20:00:15.396Z,100.00
2023-01-20T20:02:46.488Z,100.00
2023-01-20T20:05:18.256Z,100.00
2023-01-20T20:07:48.472Z,100.00
2023-01-20T20:10:20.341Z,100.00
2023-01-20T20:12:51.617Z,100.00
2023-01-20T20:15:22.489Z,100.00
2023-01-20T20:17:56.753Z,100.00
2023-01-20T20:20:27.944Z,100.00
2023-01-20T20:22:59.084Z,100.00
2023-01-20T20:25:30.495Z,100.00
2023-01-20T20:28:01.458Z,100.00
2023-01-20T20:30:32.946Z,100.00
2023-01-20T20:33:03.778Z,100.00
2023-01-20T20:35:38.091Z,100.00
2023-01-20T20:38:09.129Z,100.00
2023-01-20T20:40:40.006Z,100.00
2023-01-20T20:43:11.183Z,100.00
2023-01-20T20:45:42.287Z,100.00
2023-01-20T20:48:13.394Z,100.00
2023-01-20T20:50:45.449Z,100.00
2023-01-20T20:53:16.111Z,100.00
2023-01-20T20:55:47.432Z,100.00
2023-01-20T20:58:18.496Z,100.00
2023-01-20T21:00:53.346Z,100.00
2023-01-20T21:03:24.318Z,100.00
2023-01-20T21:05:55.396Z,100.00
2023-01-20T21:08:29.426Z,100.00
2023-01-20T21:11:04.945Z,100.00
2023-01-20T21:13:36.213Z,100.00
2023-01-20T21:16:13.100Z,100.00
2023-01-20T21:18:44.585Z,100.00
2023-01-20T21:21:15.527Z,100.00
2023-01-20T21:23:51.021Z,100.00
2023-01-20T21:26:22.256Z,100.00
2023-01-20T21:28:53.466Z,100.00
2023-01-20T21:31:28.040Z,100.00
2023-01-20T21:34:00.194Z,100.00
2023-01-20T21:36:33.784Z,100.00
2023-01-20T21:39:06.812Z,100.00
2023-01-20T21:41:37.662Z,100.00
2023-01-20T21:44:30.125Z,100.00
2023-01-20T21:47:06.241Z,100.00
2023-01-20T21:49:55.329Z,100.00
2023-01-20T21:52:45.554Z,100.00
2023-01-20T21:55:20.619Z,100.00
2023-01-20T21:57:52.568Z,100.00
2023-01-20T22:00:23.738Z,100.00
2023-01-20T22:02:54.511Z,100.00
2023-01-20T22:05:25.542Z,100.00
2023-01-20T22:07:56.714Z,100.00
2023-01-20T22:10:27.859Z,100.00
2023-01-20T22:12:58.952Z,100.00
2023-01-20T22:15:31.278Z,100.00
2023-01-20T22:18:02.332Z,100.00
2023-01-20T22:20:33.371Z,100.00
2023-01-20T22:23:04.431Z,100.00
2023-01-20T22:25:39.534Z,100.00
2023-01-20T22:28:10.560Z,100.00
2023-01-20T22:30:41.478Z,100.00
2023-01-20T22:33:12.370Z,100.00
2023-01-20T22:35:43.427Z,100.00
2023-01-20T22:38:14.006Z,100.00
2023-01-20T22:40:45.318Z,100.00
2023-01-20T22:43:16.535Z,100.00
2023-01-20T22:45:48.492Z,100.00
2023-01-20T22:48:19.870Z,100.00
2023-01-20T22:50:50.899Z,100.00
2023-01-20T22:53:21.736Z,100.00
2023-01-20T22:56:00.822Z,100.00
2023-01-20T22:58:32.910Z,100.00
2023-01-20T23:01:03.962Z,100.00
2023-01-20T23:03:35.033Z,100.00
2023-01-20T23:06:06.189Z,100.00
2023-01-20T23:08:37.682Z,100.00
2023-01-20T23:11:11.488Z,100.00
2023-01-20T23:13:43.337Z,100.00
2023-01-20T23:16:19.717Z,100.00
2023-01-20T23:18:51.939Z,100.00
2023-01-20T23:21:23.426Z,100.00
2023-01-20T23:23:57.459Z,100.00
2023-01-20T23:26:31.050Z,100.00
2023-01-20T23:29:02.090Z,100.00
2023-01-20T23:31:34.943Z,100.00
2023-01-20T23:34:06.064Z,100.00
2023-01-20T23:36:37.189Z,100.00
2023-01-20T23:39:07.723Z,100.00
2023-01-20T23:41:38.540Z,100.00
2023-01-20T23:44:10.668Z,100.00
2023-01-20T23:46:42.138Z,100.00
2023-01-20T23:49:13.591Z,100.00
2023-01-20T23:51:44.017Z,100.00
2023-01-20T23:54:15.642Z,100.00
2023-01-20T23:56:46.673Z,100.00
2023-01-20T23:59:17.792Z,100.00
